Time;durP1;ratioP1;P1;durP2;ratioP2;P2;SDS_P1;SDS_P2;PMS_P1;PMS_P2;Temp;Humidity;BMP_temperature;BMP_pressure;BME280_temperature;BME280_humidity;BME280_pressure;Samples;Min_cycle;Max_cycle;Signal;HPM_P1;HPM_P2
2023/07/19 00:01:55;;;;;;;2.23;2.03;;;26.20;44.70;;;;;;4961767;28;21376;-47
2023/07/19 00:04:24;;;;;;;1.40;1.30;;;26.20;44.70;;;;;;4964834;28;21002;-47
2023/07/19 00:06:54;;;;;;;1.77;1.67;;;26.20;44.70;;;;;;4966759;28;20467;-45
2023/07/19 00:09:23;;;;;;;1.80;1.70;;;26.20;44.70;;;;;;4957122;28;20481;-47
2023/07/19 00:11:51;;;;;;;2.73;1.87;;;26.20;44.70;;;;;;4973526;28;20473;-47
2023/07/19 00:14:20;;;;;;;1.60;1.47;;;26.20;44.70;;;;;;4972261;28;20471;-47
2023/07/19 00:16:49;;;;;;;2.60;1.73;;;26.20;44.70;;;;;;4977434;28;20538;-46
2023/07/19 00:19:17;;;;;;;2.47;2.20;;;26.20;44.70;;;;;;4959314;28;20462;-47
2023/07/19 00:21:51;;;;;;;2.57;1.80;;;26.10;44.60;;;;;;4960527;28;20469;-47
2023/07/19 00:24:21;;;;;;;1.77;1.67;;;26.10;44.60;;;;;;4956090;28;20989;-46
2023/07/19 00:26:50;;;;;;;3.70;1.70;;;26.20;44.70;;;;;;4971852;28;20558;-46
2023/07/19 00:29:19;;;;;;;1.93;1.77;;;26.10;44.60;;;;;;4970897;28;20808;-46
2023/07/19 00:31:51;;;;;;;2.13;1.60;;;26.20;44.80;;;;;;4963048;28;21018;-46
2023/07/19 00:34:20;;;;;;;3.03;2.63;;;26.10;44.70;;;;;;4953415;28;20477;-46
2023/07/19 00:36:49;;;;;;;2.27;1.63;;;26.10;44.60;;;;;;4971194;28;20484;-46
2023/07/19 00:39:18;;;;;;;1.80;1.70;;;26.20;44.80;;;;;;4955859;28;20857;-46
2023/07/19 00:41:48;;;;;;;2.43;1.70;;;26.10;44.70;;;;;;4976610;28;20495;-46
2023/07/19 00:44:16;;;;;;;1.70;1.60;;;26.10;44.60;;;;;;4960930;28;20471;-46
2023/07/19 00:46:45;;;;;;;2.20;1.47;;;26.10;44.70;;;;;;4960337;28;20454;-47
2023/07/19 00:49:14;;;;;;;2.77;1.60;;;26.10;44.70;;;;;;4959605;28;20513;-47
2023/07/19 00:51:43;;;;;;;1.90;1.70;;;26.10;44.70;;;;;;4958458;28;20528;-46
2023/07/19 00:54:12;;;;;;;2.13;1.80;;;26.10;44.70;;;;;;4972626;28;20769;-46
2023/07/19 00:56:43;;;;;;;1.97;1.63;;;26.10;44.70;;;;;;4977038;28;20546;-46
2023/07/19 00:59:15;;;;;;;1.73;1.60;;;26.10;44.60;;;;;;4976344;28;20991;-47
2023/07/19 01:01:44;;;;;;;3.30;2.07;;;26.10;44.70;;;;;;4959504;28;21020;-46
2023/07/19 01:04:13;;;;;;;2.30;1.63;;;26.10;44.60;;;;;;4960705;28;20468;-47
2023/07/19 01:06:45;;;;;;;1.87;1.67;;;26.10;44.60;;;;;;4975506;28;20520;-46
2023/07/19 01:09:15;;;;;;;2.17;1.97;;;26.10;44.70;;;;;;4975004;28;21003;-47
2023/07/19 01:11:43;;;;;;;2.00;1.80;;;26.10;44.60;;;;;;4962336;28;20453;-46
2023/07/19 01:14:13;;;;;;;2.50;2.30;;;26.10;44.60;;;;;;4962233;28;20487;-46
2023/07/19 01:16:42;;;;;;;2.20;2.00;;;26.10;44.70;;;;;;4959475;28;20928;-47
2023/07/19 01:19:11;;;;;;;1.80;1.70;;;26.10;44.70;;;;;;4963141;28;20538;-47
2023/07/19 01:21:41;;;;;;;1.90;1.80;;;26.10;44.70;;;;;;4976676;28;20526;-45
2023/07/19 01:24:11;;;;;;;1.97;1.87;;;26.10;44.70;;;;;;4975611;28;20509;-47
2023/07/19 01:26:40;;;;;;;1.83;1.73;;;26.10;44.70;;;;;;4960746;28;20521;-46
2023/07/19 01:29:08;;;;;;;1.77;1.60;;;26.10;44.80;;;;;;4962804;28;20952;-46
2023/07/19 01:31:37;;;;;;;2.07;1.50;;;26.10;44.80;;;;;;4957314;28;20940;-46
2023/07/19 01:34:07;;;;;;;1.67;1.57;;;26.00;44.60;;;;;;4955437;28;20444;-47
2023/07/19 01:36:38;;;;;;;1.93;1.70;;;26.10;44.60;;;;;;4959410;28;20473;-46
2023/07/19 01:39:06;;;;;;;2.33;1.80;;;26.10;44.70;;;;;;4974713;28;20439;-46
2023/07/19 01:41:36;;;;;;;2.13;1.60;;;26.10;44.70;;;;;;4974619;28;20899;-47
2023/07/19 01:44:06;;;;;;;2.60;1.70;;;26.00;44.50;;;;;;4971244;28;20866;-45
2023/07/19 01:46:35;;;;;;;2.33;2.00;;;26.00;44.50;;;;;;4955232;28;20450;-46
2023/07/19 01:49:04;;;;;;;1.57;1.47;;;26.10;44.50;;;;;;4976618;28;20474;-48
2023/07/19 01:51:32;;;;;;;1.87;1.70;;;26.10;44.50;;;;;;4961009;28;20469;-46
2023/07/19 01:54:01;;;;;;;1.70;1.60;;;26.00;44.50;;;;;;4972551;28;20539;-47
2023/07/19 01:56:30;;;;;;;2.17;1.80;;;26.00;44.30;;;;;;4973341;28;20457;-47
2023/07/19 01:59:00;;;;;;;3.63;1.73;;;26.00;44.30;;;;;;4977577;28;20520;-46
2023/07/19 02:01:28;;;;;;;3.07;1.87;;;26.00;44.30;;;;;;4957996;28;20550;-47
2023/07/19 02:03:58;;;;;;;1.53;1.40;;;26.00;44.30;;;;;;4967428;28;20447;-45
2023/07/19 02:06:27;;;;;;;1.80;1.63;;;26.00;44.40;;;;;;4952382;28;20988;-46
2023/07/19 02:08:56;;;;;;;1.70;1.60;;;26.00;44.30;;;;;;4959920;28;20465;-47
2023/07/19 02:11:24;;;;;;;1.63;1.53;;;26.00;44.30;;;;;;4960248;28;20533;-47
2023/07/19 02:13:53;;;;;;;1.90;1.63;;;26.00;44.40;;;;;;4977840;28;20439;-46
2023/07/19 02:16:24;;;;;;;2.03;1.80;;;26.00;44.50;;;;;;4958223;28;20467;-45
2023/07/19 02:18:53;;;;;;;2.10;1.80;;;26.00;44.30;;;;;;4948034;28;20451;-46
2023/07/19 02:21:22;;;;;;;2.17;1.50;;;26.00;44.40;;;;;;4952091;28;20483;-46
2023/07/19 02:23:50;;;;;;;2.00;1.80;;;26.00;44.30;;;;;;4943463;29;20455;-46
2023/07/19 02:26:19;;;;;;;1.80;1.53;;;26.00;44.30;;;;;;4938370;29;20793;-46
2023/07/19 02:28:48;;;;;;;2.30;2.10;;;26.00;44.30;;;;;;4953205;28;20488;-46
2023/07/19 02:31:17;;;;;;;1.60;1.50;;;26.00;44.30;;;;;;4940950;29;20478;-47
2023/07/19 02:33:47;;;;;;;2.13;1.80;;;26.00;44.30;;;;;;4936427;29;21185;-47
2023/07/19 02:36:16;;;;;;;2.00;1.87;;;26.00;44.30;;;;;;4959016;28;20497;-46
2023/07/19 02:38:45;;;;;;;1.70;1.37;;;26.00;44.40;;;;;;4958550;28;20824;-47
2023/07/19 02:41:17;;;;;;;1.70;1.60;;;26.00;44.40;;;;;;4961998;28;20968;-47
2023/07/19 02:43:50;;;;;;;2.50;1.57;;;26.00;44.30;;;;;;4958934;28;20454;-45
2023/07/19 02:46:20;;;;;;;2.07;1.87;;;26.00;44.40;;;;;;4975643;28;20977;-46
2023/07/19 02:48:50;;;;;;;2.23;2.03;;;26.00;44.40;;;;;;4974024;28;20476;-46
2023/07/19 02:51:19;;;;;;;2.83;1.90;;;26.00;44.30;;;;;;4975299;28;20521;-46
2023/07/19 02:53:49;;;;;;;1.57;1.47;;;26.00;44.40;;;;;;4973024;28;20458;-46
2023/07/19 02:56:18;;;;;;;2.17;1.97;;;26.00;44.40;;;;;;4939239;29;20477;-46
2023/07/19 02:58:47;;;;;;;2.17;1.97;;;25.90;44.30;;;;;;4937462;29;20531;-47
2023/07/19 03:01:16;;;;;;;1.77;1.67;;;26.00;44.40;;;;;;4922597;29;20487;-46
2023/07/19 03:03:45;;;;;;;2.37;1.80;;;26.00;44.30;;;;;;4937185;29;20451;-47
2023/07/19 03:06:15;;;;;;;3.30;1.63;;;26.00;44.40;;;;;;4918162;28;20999;-46
2023/07/19 03:08:44;;;;;;;2.53;2.33;;;25.90;44.30;;;;;;4939553;29;20471;-46
2023/07/19 03:11:12;;;;;;;2.13;1.93;;;25.90;44.30;;;;;;4939727;28;20474;-46
2023/07/19 03:13:41;;;;;;;2.00;1.70;;;25.90;44.30;;;;;;4939198;29;20443;-46
2023/07/19 03:16:10;;;;;;;2.00;1.80;;;25.90;44.40;;;;;;4940303;28;20479;-47
2023/07/19 03:18:39;;;;;;;2.17;1.97;;;25.90;44.30;;;;;;4936701;29;20864;-47
2023/07/19 03:21:07;;;;;;;3.00;2.07;;;25.90;44.30;;;;;;4940354;28;20505;-47
2023/07/19 03:23:38;;;;;;;2.00;1.83;;;25.90;44.30;;;;;;4931950;29;20457;-46
2023/07/19 03:26:07;;;;;;;3.87;1.63;;;25.90;44.30;;;;;;4923177;29;20474;-46
2023/07/19 03:28:35;;;;;;;2.00;1.50;;;25.90;44.30;;;;;;4937137;29;20497;-46
2023/07/19 03:31:04;;;;;;;2.23;1.70;;;25.90;44.50;;;;;;4936151;28;20476;-46
2023/07/19 03:33:33;;;;;;;2.17;2.00;;;25.90;44.70;;;;;;4924757;29;20459;-46
2023/07/19 03:36:01;;;;;;;2.23;1.57;;;25.90;44.80;;;;;;4924563;29;20485;-46
2023/07/19 03:38:30;;;;;;;2.10;1.50;;;25.90;44.90;;;;;;4929757;29;20458;-47
2023/07/19 03:41:07;;;;;;;2.00;1.57;;;25.90;45.00;;;;;;4941970;28;21020;-46
2023/07/19 03:43:36;;;;;;;1.70;1.60;;;25.90;45.00;;;;;;4923361;29;20455;-46
2023/07/19 03:46:06;;;;;;;2.47;2.00;;;25.90;45.00;;;;;;4920060;29;20479;-47
2023/07/19 03:48:37;;;;;;;2.70;1.83;;;25.90;44.90;;;;;;4909618;29;20464;-46
2023/07/19 03:51:07;;;;;;;2.07;1.73;;;25.90;44.80;;;;;;4933163;28;20488;-46
2023/07/19 03:53:36;;;;;;;3.70;2.20;;;25.80;44.70;;;;;;4921170;29;20463;-46
2023/07/19 03:56:06;;;;;;;1.83;1.53;;;25.90;44.80;;;;;;4933779;28;20485;-46
2023/07/19 03:58:35;;;;;;;1.83;1.70;;;25.90;44.80;;;;;;4953689;28;20446;-46
2023/07/19 04:01:04;;;;;;;2.13;1.73;;;25.80;44.80;;;;;;4934288;28;21008;-46
2023/07/19 04:03:34;;;;;;;2.00;1.50;;;25.80;44.80;;;;;;4928670;29;20459;-46
2023/07/19 04:06:03;;;;;;;2.40;1.97;;;25.80;45.00;;;;;;4950676;28;20485;-46
2023/07/19 04:08:31;;;;;;;2.60;1.73;;;25.80;44.90;;;;;;4926106;29;20466;-46
2023/07/19 04:11:00;;;;;;;1.43;1.33;;;25.80;44.90;;;;;;4953008;28;20486;-46
2023/07/19 04:13:30;;;;;;;2.30;1.57;;;25.80;45.00;;;;;;4935985;29;20441;-47
2023/07/19 04:15:59;;;;;;;1.67;1.57;;;25.80;45.00;;;;;;4949622;28;20912;-46
2023/07/19 04:18:28;;;;;;;2.20;1.43;;;25.80;45.10;;;;;;4941073;29;20463;-47
2023/07/19 04:20:57;;;;;;;1.87;1.67;;;25.80;45.20;;;;;;4956794;28;21173;-47
2023/07/19 04:23:28;;;;;;;1.57;1.47;;;25.80;44.90;;;;;;4935166;29;20459;-47
2023/07/19 04:25:59;;;;;;;2.67;1.67;;;25.80;45.00;;;;;;4952605;28;20485;-47
2023/07/19 04:28:31;;;;;;;2.80;1.50;;;25.80;44.90;;;;;;4950005;28;20472;-46
2023/07/19 04:31:00;;;;;;;1.57;1.47;;;25.80;45.00;;;;;;4948287;28;20492;-47
2023/07/19 04:33:30;;;;;;;2.20;1.60;;;25.80;45.20;;;;;;4945123;28;20537;-47
2023/07/19 04:35:59;;;;;;;1.60;1.50;;;25.80;45.40;;;;;;4934713;28;21029;-47
2023/07/19 04:38:28;;;;;;;2.13;1.80;;;25.80;46.60;;;;;;4924391;29;20459;-47
2023/07/19 04:41:03;;;;;;;2.10;1.90;;;25.70;45.20;;;;;;4925994;29;20496;-47
2023/07/19 04:43:34;;;;;;;2.00;1.80;;;25.80;45.10;;;;;;4926152;29;20818;-47
2023/07/19 04:46:09;;;;;;;2.07;1.73;;;25.80;45.10;;;;;;4917641;29;20479;-47
2023/07/19 04:48:39;;;;;;;1.87;1.77;;;25.70;45.10;;;;;;4947661;29;20772;-47
2023/07/19 04:51:08;;;;;;;2.90;2.23;;;25.70;45.10;;;;;;4924794;29;20509;-46
2023/07/19 04:53:37;;;;;;;2.30;1.70;;;25.70;45.10;;;;;;4933802;29;20540;-46
2023/07/19 04:56:06;;;;;;;2.10;1.90;;;25.70;45.00;;;;;;4935502;29;20522;-46
2023/07/19 04:58:37;;;;;;;2.10;2.00;;;25.70;45.00;;;;;;4920604;29;20970;-47
2023/07/19 05:01:08;;;;;;;2.37;2.17;;;25.70;45.10;;;;;;4927945;29;20491;-46
2023/07/19 05:03:39;;;;;;;2.10;1.90;;;25.70;45.00;;;;;;4920970;29;20519;-46
2023/07/19 05:06:08;;;;;;;1.93;1.73;;;25.70;45.00;;;;;;4943912;29;20482;-46
2023/07/19 05:08:37;;;;;;;2.07;1.90;;;25.70;45.10;;;;;;4927114;29;20450;-46
2023/07/19 05:11:06;;;;;;;1.50;1.40;;;25.70;45.10;;;;;;4929155;29;21102;-46
2023/07/19 05:13:36;;;;;;;1.80;1.70;;;25.70;46.30;;;;;;4928399;29;20447;-46
2023/07/19 05:16:05;;;;;;;4.20;2.20;;;25.70;45.10;;;;;;4938585;29;20992;-47
2023/07/19 05:18:35;;;;;;;2.10;1.90;;;25.70;45.10;;;;;;4918488;29;20485;-46
2023/07/19 05:21:04;;;;;;;2.00;1.90;;;25.70;45.20;;;;;;4913588;29;20472;-47
2023/07/19 05:23:33;;;;;;;1.93;1.83;;;25.70;45.10;;;;;;4929030;29;20550;-47
2023/07/19 05:26:02;;;;;;;1.77;1.40;;;25.70;45.00;;;;;;4929681;29;20526;-46
2023/07/19 05:28:31;;;;;;;1.57;1.47;;;25.70;45.10;;;;;;4931707;29;20455;-47
2023/07/19 05:31:04;;;;;;;2.37;2.00;;;25.70;45.10;;;;;;4912676;29;20485;-46
2023/07/19 05:33:33;;;;;;;2.13;1.87;;;25.70;44.70;;;;;;4940311;29;20882;-47
2023/07/19 05:36:02;;;;;;;2.13;1.53;;;25.70;45.00;;;;;;4915702;29;20479;-46
2023/07/19 05:38:32;;;;;;;1.67;1.57;;;25.70;45.10;;;;;;4934058;29;20480;-45
2023/07/19 05:41:01;;;;;;;2.70;1.50;;;25.60;45.00;;;;;;4931874;28;21000;-47
2023/07/19 05:43:30;;;;;;;1.57;1.47;;;25.70;45.10;;;;;;4932323;29;20446;-46
2023/07/19 05:46:04;;;;;;;1.60;1.50;;;25.70;45.10;;;;;;4932529;29;20484;-46
2023/07/19 05:48:34;;;;;;;1.63;1.50;;;25.60;45.10;;;;;;4935928;29;20489;-46
2023/07/19 05:51:04;;;;;;;1.97;1.70;;;25.60;45.20;;;;;;4944936;28;20859;-46
2023/07/19 05:53:33;;;;;;;1.97;1.83;;;25.60;45.20;;;;;;4933686;29;20458;-46
2023/07/19 05:56:01;;;;;;;2.00;1.70;;;25.60;45.10;;;;;;4922321;29;20498;-47
2023/07/19 05:58:30;;;;;;;2.03;1.47;;;25.60;45.20;;;;;;4945434;29;20451;-46
2023/07/19 06:00:59;;;;;;;2.00;1.60;;;25.60;45.20;;;;;;4920403;28;20542;-47
2023/07/19 06:03:29;;;;;;;2.40;2.20;;;25.60;45.20;;;;;;4939174;29;20443;-45
2023/07/19 06:05:58;;;;;;;1.73;1.50;;;25.60;45.20;;;;;;4949044;28;20474;-46
2023/07/19 06:08:26;;;;;;;2.17;1.70;;;25.60;45.20;;;;;;4935617;29;20537;-46
2023/07/19 06:10:55;;;;;;;2.00;1.80;;;25.60;45.20;;;;;;4929810;28;20479;-47
2023/07/19 06:13:23;;;;;;;1.57;1.43;;;25.60;45.20;;;;;;4926011;29;20441;-46
2023/07/19 06:15:52;;;;;;;2.83;2.00;;;25.60;45.20;;;;;;4939463;28;20465;-47
2023/07/19 06:18:21;;;;;;;1.87;1.53;;;25.60;45.10;;;;;;4960032;28;20454;-47
2023/07/19 06:20:51;;;;;;;1.93;1.77;;;25.60;45.20;;;;;;4951900;28;20893;-46
2023/07/19 06:23:22;;;;;;;1.67;1.40;;;25.60;45.30;;;;;;4951177;28;20448;-46
2023/07/19 06:25:51;;;;;;;1.70;1.40;;;25.60;45.30;;;;;;4937732;28;21065;-46
2023/07/19 06:28:19;;;;;;;1.60;1.40;;;25.60;45.30;;;;;;4958861;28;20939;-46
2023/07/19 06:30:48;;;;;;;2.03;1.60;;;25.60;45.20;;;;;;4949410;29;20556;-47
2023/07/19 06:33:17;;;;;;;2.70;1.87;;;25.60;45.30;;;;;;4932777;29;20448;-47
2023/07/19 06:35:45;;;;;;;2.13;1.93;;;25.60;45.40;;;;;;4951983;28;20485;-47
2023/07/19 06:38:15;;;;;;;1.47;1.37;;;25.50;45.30;;;;;;4937527;29;20536;-47
2023/07/19 06:40:44;;;;;;;3.50;2.20;;;25.60;45.40;;;;;;4948958;28;20912;-47
2023/07/19 06:43:12;;;;;;;1.80;1.57;;;25.50;45.20;;;;;;4947605;29;20454;-46
2023/07/19 06:45:41;;;;;;;2.23;1.70;;;25.50;45.30;;;;;;4932405;28;21010;-45
2023/07/19 06:48:10;;;;;;;2.60;1.37;;;25.50;45.40;;;;;;4948407;28;20498;-46
2023/07/19 06:50:38;;;;;;;1.60;1.50;;;25.50;45.40;;;;;;4941761;28;20474;-47
2023/07/19 06:53:07;;;;;;;3.10;1.80;;;25.50;45.50;;;;;;4928272;29;20562;-46
2023/07/19 06:55:41;;;;;;;2.30;1.60;;;25.50;45.40;;;;;;4927957;28;20522;-47
2023/07/19 06:58:09;;;;;;;2.37;2.17;;;25.50;45.50;;;;;;4934509;29;21065;-46
2023/07/19 07:00:38;;;;;;;2.40;2.20;;;25.50;45.50;;;;;;4939861;28;20565;-46
2023/07/19 07:03:07;;;;;;;1.87;1.53;;;25.50;45.50;;;;;;4929567;29;20465;-46
2023/07/19 07:05:36;;;;;;;1.70;1.60;;;25.50;45.50;;;;;;4930206;29;20486;-47
2023/07/19 07:08:05;;;;;;;2.60;2.20;;;25.50;45.40;;;;;;4930688;29;20446;-47
2023/07/19 07:10:34;;;;;;;1.83;1.70;;;25.50;45.40;;;;;;4949915;28;20614;-47
2023/07/19 07:13:04;;;;;;;1.70;1.40;;;25.40;45.30;;;;;;4924236;29;20458;-47
2023/07/19 07:15:33;;;;;;;3.27;2.20;;;25.50;45.40;;;;;;4925129;29;20528;-46
2023/07/19 07:18:02;;;;;;;2.60;2.20;;;25.50;45.30;;;;;;4937885;29;21020;-47
2023/07/19 07:20:30;;;;;;;1.53;1.43;;;25.50;45.10;;;;;;4934044;28;21040;-47
2023/07/19 07:22:59;;;;;;;1.70;1.50;;;25.40;45.00;;;;;;4938042;29;20455;-45
2023/07/19 07:25:29;;;;;;;1.93;1.37;;;25.50;45.40;;;;;;4933263;29;20520;-46
2023/07/19 07:27:59;;;;;;;3.20;1.87;;;25.40;45.20;;;;;;4954610;28;20925;-47
2023/07/19 07:30:29;;;;;;;2.40;1.80;;;25.40;45.00;;;;;;4944438;28;21014;-47
2023/07/19 07:32:57;;;;;;;2.08;1.60;;;25.40;45.20;;;;;;4946595;28;20521;-44
2023/07/19 07:35:26;;;;;;;4.20;3.00;;;25.50;45.50;;;;;;4933909;28;21030;-45
2023/07/19 07:37:55;;;;;;;4.77;2.90;;;25.40;44.00;;;;;;4959445;28;20522;-45
2023/07/19 07:40:26;;;;;;;5.00;3.50;;;25.40;43.90;;;;;;4944422;28;20473;-44
2023/07/19 07:42:55;;;;;;;7.63;2.90;;;25.40;42.10;;;;;;4956460;28;20496;-46
2023/07/19 07:45:24;;;;;;;6.17;3.03;;;25.40;41.50;;;;;;4945479;28;20478;-45
2023/07/19 07:47:54;;;;;;;6.97;3.30;;;25.20;41.00;;;;;;4946739;28;20764;-45
2023/07/19 07:50:24;;;;;;;6.67;3.50;;;25.10;41.20;;;;;;4960767;28;20489;-46
2023/07/19 07:52:53;;;;;;;6.90;3.40;;;24.90;42.10;;;;;;4947404;28;20955;-47
2023/07/19 07:55:42;;;;;;;10.97;3.37;;;24.80;42.60;;;;;;4941883;28;20218;-43
2023/07/19 07:58:12;;;;;;;9.00;3.13;;;24.80;43.20;;;;;;4958562;28;20464;-45
2023/07/19 08:00:41;;;;;;;6.07;2.87;;;24.80;43.20;;;;;;4959267;28;20546;-47
2023/07/19 08:03:12;;;;;;;5.77;3.17;;;24.90;43.40;;;;;;4947581;28;20961;-46
2023/07/19 08:05:43;;;;;;;5.17;3.43;;;24.90;43.30;;;;;;4955471;28;20541;-47
2023/07/19 08:08:12;;;;;;;5.97;3.60;;;24.90;43.30;;;;;;4949088;28;20442;-51
2023/07/19 08:10:42;;;;;;;6.57;3.37;;;25.00;43.40;;;;;;4959567;28;20505;-46
2023/07/19 08:13:11;;;;;;;6.67;3.23;;;25.00;43.40;;;;;;4963403;28;21015;-47
2023/07/19 08:15:40;;;;;;;4.97;3.03;;;25.00;43.30;;;;;;4949053;28;21029;-47
2023/07/19 08:18:11;;;;;;;8.67;3.37;;;25.10;43.20;;;;;;4941255;28;20447;-46
2023/07/19 08:20:40;;;;;;;6.50;2.67;;;25.10;43.20;;;;;;4963393;28;20560;-46
2023/07/19 08:23:11;;;;;;;6.80;2.90;;;25.10;43.30;;;;;;4952690;28;20475;-47
2023/07/19 08:25:42;;;;;;;7.70;3.53;;;25.10;43.40;;;;;;4941283;28;20525;-46
2023/07/19 08:28:11;;;;;;;9.10;3.40;;;25.10;43.40;;;;;;4951390;28;20437;-46
2023/07/19 08:30:41;;;;;;;7.23;3.70;;;25.10;43.30;;;;;;4946502;28;20474;-46
2023/07/19 08:33:12;;;;;;;4.73;3.03;;;25.10;43.40;;;;;;4961216;28;20464;-45
2023/07/19 08:35:42;;;;;;;8.53;3.40;;;25.10;43.50;;;;;;4939483;28;20565;-46
2023/07/19 08:38:12;;;;;;;5.43;2.80;;;25.10;43.40;;;;;;4963146;28;20543;-46
2023/07/19 08:40:41;;;;;;;5.23;2.50;;;25.10;43.50;;;;;;4944587;28;20487;-46
2023/07/19 08:43:12;;;;;;;8.17;2.97;;;25.10;43.50;;;;;;4941418;28;20422;-45
2023/07/19 08:45:41;;;;;;;5.27;2.80;;;25.10;43.40;;;;;;4929454;28;20467;-46
2023/07/19 08:48:11;;;;;;;3.30;2.80;;;25.10;43.40;;;;;;4941353;29;20827;-47
2023/07/19 08:50:42;;;;;;;4.87;3.00;;;25.10;43.40;;;;;;4939046;28;20612;-46
2023/07/19 08:53:12;;;;;;;3.70;2.93;;;25.10;43.50;;;;;;4924772;29;20479;-46
2023/07/19 08:55:42;;;;;;;3.60;2.37;;;25.10;43.60;;;;;;4918747;29;21006;-47
2023/07/19 08:58:12;;;;;;;4.30;2.57;;;25.10;43.50;;;;;;4938300;29;20501;-46
2023/07/19 09:00:41;;;;;;;4.30;2.97;;;25.10;43.50;;;;;;4919047;28;20470;-47
2023/07/19 09:03:11;;;;;;;4.60;2.87;;;25.10;43.90;;;;;;4918840;29;20248;-47
2023/07/19 09:05:42;;;;;;;6.10;2.93;;;25.10;43.90;;;;;;4944936;29;20517;-46
2023/07/19 09:08:12;;;;;;;4.43;2.40;;;25.10;43.90;;;;;;4936833;29;20451;-47
2023/07/19 09:10:44;;;;;;;3.97;2.33;;;25.10;43.80;;;;;;4914419;29;20489;-46
2023/07/19 09:13:19;;;;;;;4.60;3.17;;;25.10;43.80;;;;;;4934716;29;20480;-46
2023/07/19 09:15:49;;;;;;;4.10;3.00;;;25.10;43.90;;;;;;4932616;28;20922;-46
2023/07/19 09:18:20;;;;;;;3.03;2.60;;;25.10;44.00;;;;;;4940588;29;20565;-46
2023/07/19 09:20:49;;;;;;;4.47;2.77;;;25.10;43.90;;;;;;4943898;28;20849;-46
2023/07/19 09:23:21;;;;;;;4.20;2.93;;;25.10;43.70;;;;;;4925678;29;20428;-46
2023/07/19 09:25:55;;;;;;;3.67;3.13;;;25.10;43.90;;;;;;4922378;29;20481;-46
2023/07/19 09:28:25;;;;;;;2.87;2.33;;;25.10;43.90;;;;;;4928023;29;20713;-46
2023/07/19 09:31:00;;;;;;;3.30;2.93;;;25.10;43.90;;;;;;4924407;29;20525;-47
2023/07/19 09:33:45;;;;;;;4.43;2.67;;;25.10;43.70;;;;;;4935096;29;20481;-47
2023/07/19 09:36:18;;;;;;;3.10;2.70;;;25.10;43.70;;;;;;4926820;28;20486;-46
2023/07/19 09:38:48;;;;;;;4.60;2.80;;;25.10;43.80;;;;;;4922538;29;20456;-47
2023/07/19 09:41:18;;;;;;;3.43;2.50;;;25.10;43.80;;;;;;4937791;28;20570;-46
2023/07/19 09:43:48;;;;;;;4.77;3.00;;;25.10;43.80;;;;;;4930837;29;20444;-47
2023/07/19 09:46:18;;;;;;;5.50;2.50;;;25.10;43.70;;;;;;4936836;28;20914;-47
2023/07/19 09:48:49;;;;;;;3.93;2.87;;;25.10;43.80;;;;;;4935029;29;20452;-46
2023/07/19 09:51:19;;;;;;;4.10;2.50;;;25.10;43.90;;;;;;4944194;28;20498;-46
2023/07/19 09:53:50;;;;;;;3.83;2.60;;;25.10;43.90;;;;;;4955373;28;20564;-46
2023/07/19 09:56:18;;;;;;;6.10;2.83;;;25.10;44.00;;;;;;4941107;28;20480;-44
2023/07/19 09:58:48;;;;;;;3.67;3.07;;;25.10;44.00;;;;;;4930913;29;20450;-46
2023/07/19 10:01:17;;;;;;;2.60;2.40;;;25.10;44.00;;;;;;4929440;28;20472;-47
2023/07/19 10:03:46;;;;;;;3.33;2.40;;;25.10;44.00;;;;;;4934324;29;20453;-45
2023/07/19 10:06:16;;;;;;;3.60;2.37;;;25.10;44.00;;;;;;4928597;29;20480;-46
2023/07/19 10:08:45;;;;;;;3.70;2.60;;;25.10;44.00;;;;;;4922178;29;20867;-47
2023/07/19 10:11:23;;;;;;;3.00;2.43;;;25.10;44.10;;;;;;4930527;28;20482;-47
2023/07/19 10:13:57;;;;;;;3.10;2.80;;;25.10;44.00;;;;;;4942612;29;21052;-46
2023/07/19 10:16:34;;;;;;;2.70;2.20;;;25.10;44.20;;;;;;4933837;28;20482;-45
2023/07/19 10:19:10;;;;;;;8.37;2.70;;;25.10;44.00;;;;;;4947510;28;20460;-45
2023/07/19 10:22:02;;;;;;;3.17;2.40;;;25.00;44.00;;;;;;4952823;28;20828;-47
2023/07/19 10:24:32;;;;;;;4.40;2.80;;;25.00;44.00;;;;;;4954180;28;20443;-47
2023/07/19 10:27:03;;;;;;;2.80;2.23;;;25.00;44.20;;;;;;4945397;28;20459;-46
2023/07/19 10:29:42;;;;;;;2.57;2.20;;;25.00;44.00;;;;;;4948787;28;20866;-46
2023/07/19 10:32:11;;;;;;;3.50;2.20;;;25.10;44.00;;;;;;4915256;29;20497;-47
2023/07/19 10:34:45;;;;;;;3.90;3.03;;;25.10;43.80;;;;;;4924559;29;20927;-46
2023/07/19 10:37:15;;;;;;;3.40;3.10;;;25.10;44.00;;;;;;4914157;29;20540;-47
2023/07/19 10:39:44;;;;;;;3.93;2.47;;;25.10;43.60;;;;;;4931880;28;21001;-47
2023/07/19 10:42:16;;;;;;;3.93;2.67;;;25.10;43.70;;;;;;4953509;28;20471;-46
2023/07/19 10:44:45;;;;;;;2.30;2.10;;;25.10;43.80;;;;;;4953779;28;20864;-46
2023/07/19 10:47:15;;;;;;;3.40;2.30;;;25.10;44.00;;;;;;4954820;28;20757;-46
2023/07/19 10:49:46;;;;;;;2.60;2.40;;;25.10;43.70;;;;;;4935578;29;20989;-47
2023/07/19 10:52:22;;;;;;;5.03;2.57;;;25.10;43.90;;;;;;4940666;29;20475;-47
2023/07/19 10:54:57;;;;;;;2.57;2.23;;;25.10;44.00;;;;;;4931070;29;20480;-47
2023/07/19 10:57:47;;;;;;;3.70;2.13;;;25.10;44.00;;;;;;4932617;29;20453;-45
2023/07/19 11:00:16;;;;;;;3.30;2.43;;;25.10;43.80;;;;;;4943558;28;20498;-46
2023/07/19 11:02:45;;;;;;;3.93;2.70;;;25.10;44.00;;;;;;4929992;29;20815;-42
2023/07/19 11:05:15;;;;;;;5.63;2.77;;;25.10;44.20;;;;;;4938873;28;20493;-46
2023/07/19 11:07:45;;;;;;;6.23;2.60;;;25.10;43.80;;;;;;4940377;29;20455;-46
2023/07/19 11:10:14;;;;;;;4.10;2.77;;;25.10;43.90;;;;;;4933393;28;20472;-46
2023/07/19 11:12:43;;;;;;;3.30;2.47;;;25.10;43.80;;;;;;4935416;29;20967;-45
2023/07/19 11:15:12;;;;;;;4.03;2.80;;;25.10;43.80;;;;;;4957545;28;20458;-47
2023/07/19 11:17:41;;;;;;;4.87;2.40;;;25.10;43.80;;;;;;4953443;28;20483;-46
2023/07/19 11:20:12;;;;;;;3.47;3.17;;;25.10;43.80;;;;;;4955353;28;20472;-46
2023/07/19 11:22:41;;;;;;;4.23;2.23;;;25.10;43.80;;;;;;4940311;29;20790;-47
2023/07/19 11:25:13;;;;;;;2.70;2.23;;;25.10;44.00;;;;;;4951268;28;20831;-47
2023/07/19 11:27:42;;;;;;;2.57;2.20;;;25.10;44.00;;;;;;4946138;28;20451;-47
2023/07/19 11:30:14;;;;;;;4.37;2.50;;;25.10;44.00;;;;;;4955634;28;20493;-47
2023/07/19 11:32:43;;;;;;;2.87;2.27;;;25.10;44.00;;;;;;4941257;29;20545;-46
2023/07/19 11:35:12;;;;;;;3.00;2.17;;;25.10;43.90;;;;;;4948865;29;20463;-46
2023/07/19 11:37:41;;;;;;;3.97;2.43;;;25.10;44.00;;;;;;4958278;28;20451;-46
2023/07/19 11:40:16;;;;;;;4.07;3.27;;;25.10;44.00;;;;;;4950860;28;20485;-46
2023/07/19 11:42:47;;;;;;;3.87;2.50;;;25.10;43.80;;;;;;4942098;29;20444;-46
2023/07/19 11:45:18;;;;;;;3.70;2.67;;;25.10;43.70;;;;;;4928895;29;20468;-46
2023/07/19 11:47:50;;;;;;;1.90;1.80;;;25.10;43.80;;;;;;4935610;29;20461;-47
2023/07/19 11:50:20;;;;;;;2.30;1.93;;;25.10;43.90;;;;;;4951101;28;20561;-46
2023/07/19 11:52:52;;;;;;;3.00;2.00;;;25.10;43.80;;;;;;4957370;28;20464;-46
2023/07/19 11:55:23;;;;;;;4.53;2.80;;;25.10;43.60;;;;;;4947036;28;20460;-46
2023/07/19 11:57:53;;;;;;;4.27;2.60;;;25.10;43.60;;;;;;4959897;28;20932;-46
2023/07/19 12:00:24;;;;;;;3.13;2.67;;;25.10;43.80;;;;;;4949380;28;20546;-45
2023/07/19 12:02:53;;;;;;;3.00;2.10;;;25.10;43.70;;;;;;4908181;29;20879;-47
2023/07/19 12:05:24;;;;;;;4.77;2.40;;;25.10;43.80;;;;;;4924929;29;20558;-46
2023/07/19 12:07:54;;;;;;;3.00;2.40;;;25.10;43.70;;;;;;4936891;29;20431;-46
2023/07/19 12:10:26;;;;;;;5.03;2.20;;;25.10;43.90;;;;;;4943936;28;20475;-46
2023/07/19 12:12:55;;;;;;;3.23;2.60;;;25.10;43.70;;;;;;4935014;28;20650;-46
2023/07/19 12:15:24;;;;;;;2.27;2.00;;;25.10;43.90;;;;;;4947629;29;20578;-47
2023/07/19 12:17:56;;;;;;;2.80;1.90;;;25.10;43.60;;;;;;4944373;28;20444;-46
2023/07/19 12:20:27;;;;;;;3.23;2.07;;;25.10;43.60;;;;;;4940396;28;20467;-46
2023/07/19 12:22:57;;;;;;;4.23;2.60;;;25.10;43.70;;;;;;4941078;29;20857;-45
2023/07/19 12:25:27;;;;;;;2.97;2.17;;;25.10;43.70;;;;;;4944127;28;20532;-45
2023/07/19 12:27:56;;;;;;;3.50;2.63;;;25.20;43.30;;;;;;4925625;29;20455;-46
2023/07/19 12:30:24;;;;;;;70.93;8.60;;;25.20;43.20;;;;;;4925203;28;20488;-44
2023/07/19 12:32:53;;;;;;;99.63;12.60;;;25.20;42.80;;;;;;4920288;29;20452;-45
2023/07/19 12:35:22;;;;;;;63.97;8.73;;;25.30;43.20;;;;;;4927497;28;20232;-46
2023/07/19 12:37:51;;;;;;;49.60;7.20;;;25.30;42.60;;;;;;4931982;29;20456;-47
2023/07/19 12:40:19;;;;;;;34.53;5.70;;;25.20;43.00;;;;;;4949826;28;20844;-46
2023/07/19 12:42:52;;;;;;;26.50;4.80;;;25.40;41.50;;;;;;4956537;28;20520;-46
2023/07/19 12:45:21;;;;;;;26.10;4.27;;;25.30;41.70;;;;;;4935645;29;20989;-47
2023/07/19 12:47:49;;;;;;;27.53;5.10;;;25.20;41.80;;;;;;4934476;29;20455;-46
2023/07/19 12:50:18;;;;;;;22.33;3.47;;;25.20;41.90;;;;;;4943784;28;20885;-46
2023/07/19 12:52:47;;;;;;;17.33;3.80;;;25.20;41.80;;;;;;4922782;29;20870;-47
2023/07/19 12:55:20;;;;;;;9.17;2.90;;;25.20;42.00;;;;;;4940511;28;20566;-46
2023/07/19 12:57:50;;;;;;;11.03;2.93;;;25.20;42.00;;;;;;4939740;29;20437;-46
2023/07/19 13:00:19;;;;;;;15.07;3.87;;;25.20;41.80;;;;;;4922534;29;21013;-45